sensor_id;sensor_type;location;lat;lon;timestamp;temperature;humidity
25512;DHT22;13414;44.534;18.700;2022-09-09T00:01:00;18.90;99.90
25512;DHT22;13414;44.534;18.700;2022-09-09T00:03:38;18.90;99.90
25512;DHT22;13414;44.534;18.700;2022-09-09T00:06:12;19.00;99.90
25512;DHT22;13414;44.534;18.700;2022-09-09T00:08:51;19.10;99.90
25512;DHT22;13414;44.534;18.700;2022-09-09T00:11:26;19.10;99.90
25512;DHT22;13414;44.534;18.700;2022-09-09T00:13:57;19.10;99.90
25512;DHT22;13414;44.534;18.700;2022-09-09T00:16:32;19.10;99.90
25512;DHT22;13414;44.534;18.700;2022-09-09T00:19:07;19.10;99.90
25512;DHT22;13414;44.534;18.700;2022-09-09T00:21:37;19.10;99.90
25512;DHT22;13414;44.534;18.700;2022-09-09T00:24:11;19.10;99.90
25512;DHT22;13414;44.534;18.700;2022-09-09T00:26:44;19.10;99.90
25512;DHT22;13414;44.534;18.700;2022-09-09T00:29:20;19.10;99.90
25512;DHT22;13414;44.534;18.700;2022-09-09T00:31:51;19.10;99.90
25512;DHT22;13414;44.534;18.700;2022-09-09T00:34:24;19.00;99.90
25512;DHT22;13414;44.534;18.700;2022-09-09T00:36:54;19.10;99.90
25512;DHT22;13414;44.534;18.700;2022-09-09T00:39:27;19.00;99.90
25512;DHT22;13414;44.534;18.700;2022-09-09T00:42:09;19.00;99.90
25512;DHT22;13414;44.534;18.700;2022-09-09T00:44:51;19.10;99.90
25512;DHT22;13414;44.534;18.700;2022-09-09T00:47:36;19.00;99.90
25512;DHT22;13414;44.534;18.700;2022-09-09T00:50:26;19.00;99.90
25512;DHT22;13414;44.534;18.700;2022-09-09T00:53:02;19.00;99.90
25512;DHT22;13414;44.534;18.700;2022-09-09T00:55:39;19.00;99.90
25512;DHT22;13414;44.534;18.700;2022-09-09T00:58:08;19.00;99.90
25512;DHT22;13414;44.534;18.700;2022-09-09T01:00:42;19.10;99.90
25512;DHT22;13414;44.534;18.700;2022-09-09T01:03:22;19.10;99.90
25512;DHT22;13414;44.534;18.700;2022-09-09T01:06:11;19.10;99.90
25512;DHT22;13414;44.534;18.700;2022-09-09T01:09:09;19.10;99.90
25512;DHT22;13414;44.534;18.700;2022-09-09T01:11:49;19.10;99.90
25512;DHT22;13414;44.534;18.700;2022-09-09T01:14:27;19.20;99.90
25512;DHT22;13414;44.534;18.700;2022-09-09T01:17:01;19.20;99.90
25512;DHT22;13414;44.534;18.700;2022-09-09T01:19:39;19.10;99.90
25512;DHT22;13414;44.534;18.700;2022-09-09T01:22:16;19.10;99.90
25512;DHT22;13414;44.534;18.700;2022-09-09T01:25:01;19.10;99.90
25512;DHT22;13414;44.534;18.700;2022-09-09T01:28:01;19.20;99.90
25512;DHT22;13414;44.534;18.700;2022-09-09T01:30:33;19.20;99.90
25512;DHT22;13414;44.534;18.700;2022-09-09T01:33:03;19.20;99.90
25512;DHT22;13414;44.534;18.700;2022-09-09T01:35:39;19.30;99.90
25512;DHT22;13414;44.534;18.700;2022-09-09T01:38:08;19.30;99.90
25512;DHT22;13414;44.534;18.700;2022-09-09T01:40:36;19.30;99.90
25512;DHT22;13414;44.534;18.700;2022-09-09T01:43:05;19.30;99.90
25512;DHT22;13414;44.534;18.700;2022-09-09T01:45:34;19.40;99.90
25512;DHT22;13414;44.534;18.700;2022-09-09T01:48:03;19.40;99.90
25512;DHT22;13414;44.534;18.700;2022-09-09T01:50:41;19.50;99.90
25512;DHT22;13414;44.534;18.700;2022-09-09T01:53:09;19.50;99.90
25512;DHT22;13414;44.534;18.700;2022-09-09T01:55:39;19.50;99.90
25512;DHT22;13414;44.534;18.700;2022-09-09T01:58:21;19.40;99.90
25512;DHT22;13414;44.534;18.700;2022-09-09T02:01:02;19.40;99.90
25512;DHT22;13414;44.534;18.700;2022-09-09T02:03:34;19.40;99.90
25512;DHT22;13414;44.534;18.700;2022-09-09T02:06:18;19.30;99.90
25512;DHT22;13414;44.534;18.700;2022-09-09T02:08:52;19.30;99.90
25512;DHT22;13414;44.534;18.700;2022-09-09T02:11:23;19.20;99.90
25512;DHT22;13414;44.534;18.700;2022-09-09T02:14:19;19.20;99.90
25512;DHT22;13414;44.534;18.700;2022-09-09T02:16:52;19.10;99.90
25512;DHT22;13414;44.534;18.700;2022-09-09T02:19:28;19.10;99.90
25512;DHT22;13414;44.534;18.700;2022-09-09T02:22:06;19.10;99.90
25512;DHT22;13414;44.534;18.700;2022-09-09T02:24:37;19.00;99.90
25512;DHT22;13414;44.534;18.700;2022-09-09T02:27:13;19.00;99.90
25512;DHT22;13414;44.534;18.700;2022-09-09T02:29:44;18.90;99.90
25512;DHT22;13414;44.534;18.700;2022-09-09T02:32:15;18.90;99.90
25512;DHT22;13414;44.534;18.700;2022-09-09T02:34:47;18.80;99.90
25512;DHT22;13414;44.534;18.700;2022-09-09T02:37:18;18.80;99.90
25512;DHT22;13414;44.534;18.700;2022-09-09T02:39:51;18.70;99.90
25512;DHT22;13414;44.534;18.700;2022-09-09T02:42:20;18.60;99.90
25512;DHT22;13414;44.534;18.700;2022-09-09T02:44:51;18.60;99.90
25512;DHT22;13414;44.534;18.700;2022-09-09T02:47:27;18.50;99.90
25512;DHT22;13414;44.534;18.700;2022-09-09T02:50:08;18.50;99.90
25512;DHT22;13414;44.534;18.700;2022-09-09T02:52:44;18.40;99.90
25512;DHT22;13414;44.534;18.700;2022-09-09T02:55:20;18.40;99.90
25512;DHT22;13414;44.534;18.700;2022-09-09T02:57:52;18.30;99.90
25512;DHT22;13414;44.534;18.700;2022-09-09T03:00:26;18.40;99.90
25512;DHT22;13414;44.534;18.700;2022-09-09T03:02:59;18.40;99.90
25512;DHT22;13414;44.534;18.700;2022-09-09T03:05:27;18.30;99.90
25512;DHT22;13414;44.534;18.700;2022-09-09T03:07:55;18.30;99.90
25512;DHT22;13414;44.534;18.700;2022-09-09T03:10:22;18.30;99.90
25512;DHT22;13414;44.534;18.700;2022-09-09T03:12:50;18.30;99.90
25512;DHT22;13414;44.534;18.700;2022-09-09T03:15:18;18.30;99.90
25512;DHT22;13414;44.534;18.700;2022-09-09T03:17:48;18.20;99.90
25512;DHT22;13414;44.534;18.700;2022-09-09T03:20:15;18.20;99.90
25512;DHT22;13414;44.534;18.700;2022-09-09T03:22:43;18.20;99.90
25512;DHT22;13414;44.534;18.700;2022-09-09T03:25:11;18.10;99.90
25512;DHT22;13414;44.534;18.700;2022-09-09T03:27:38;18.10;99.90
25512;DHT22;13414;44.534;18.700;2022-09-09T03:30:07;18.10;99.90
25512;DHT22;13414;44.534;18.700;2022-09-09T03:32:35;18.00;99.90
25512;DHT22;13414;44.534;18.700;2022-09-09T03:35:04;18.00;99.90
25512;DHT22;13414;44.534;18.700;2022-09-09T03:37:32;18.10;99.90
25512;DHT22;13414;44.534;18.700;2022-09-09T03:39:59;18.10;99.90
25512;DHT22;13414;44.534;18.700;2022-09-09T03:42:27;18.10;99.90
25512;DHT22;13414;44.534;18.700;2022-09-09T03:44:57;18.00;99.90
25512;DHT22;13414;44.534;18.700;2022-09-09T03:47:26;18.00;99.90
25512;DHT22;13414;44.534;18.700;2022-09-09T03:50:00;18.00;99.90
25512;DHT22;13414;44.534;18.700;2022-09-09T03:52:30;18.00;99.90
25512;DHT22;13414;44.534;18.700;2022-09-09T03:54:58;18.10;99.90
25512;DHT22;13414;44.534;18.700;2022-09-09T03:57:26;18.10;99.90
25512;DHT22;13414;44.534;18.700;2022-09-09T03:59:53;18.00;99.90
25512;DHT22;13414;44.534;18.700;2022-09-09T04:02:20;18.00;99.90
25512;DHT22;13414;44.534;18.700;2022-09-09T04:04:48;18.00;99.90
25512;DHT22;13414;44.534;18.700;2022-09-09T04:07:16;18.00;99.90
25512;DHT22;13414;44.534;18.700;2022-09-09T04:09:46;18.00;99.90
25512;DHT22;13414;44.534;18.700;2022-09-09T04:12:14;18.10;99.90
25512;DHT22;13414;44.534;18.700;2022-09-09T04:14:42;18.10;99.90
25512;DHT22;13414;44.534;18.700;2022-09-09T04:17:10;18.10;99.90
25512;DHT22;13414;44.534;18.700;2022-09-09T04:19:37;18.10;99.90
25512;DHT22;13414;44.534;18.700;2022-09-09T04:22:04;18.10;99.90
25512;DHT22;13414;44.534;18.700;2022-09-09T04:24:32;18.10;99.90
25512;DHT22;13414;44.534;18.700;2022-09-09T04:27:02;18.10;99.90
25512;DHT22;13414;44.534;18.700;2022-09-09T04:29:32;18.10;99.90
25512;DHT22;13414;44.534;18.700;2022-09-09T04:31:59;18.20;99.90
25512;DHT22;13414;44.534;18.700;2022-09-09T04:34:27;18.20;99.90
25512;DHT22;13414;44.534;18.700;2022-09-09T04:36:55;18.10;99.90
25512;DHT22;13414;44.534;18.700;2022-09-09T04:39:23;18.20;99.90
25512;DHT22;13414;44.534;18.700;2022-09-09T04:41:51;18.20;99.90
25512;DHT22;13414;44.534;18.700;2022-09-09T04:44:22;18.20;99.90
25512;DHT22;13414;44.534;18.700;2022-09-09T04:46:50;18.20;99.90
25512;DHT22;13414;44.534;18.700;2022-09-09T04:49:17;18.30;99.90
25512;DHT22;13414;44.534;18.700;2022-09-09T04:51:44;18.30;99.90
25512;DHT22;13414;44.534;18.700;2022-09-09T04:54:13;18.30;99.90
25512;DHT22;13414;44.534;18.700;2022-09-09T04:56:42;18.20;99.90
25512;DHT22;13414;44.534;18.700;2022-09-09T04:59:10;18.20;99.90
25512;DHT22;13414;44.534;18.700;2022-09-09T05:01:49;18.30;99.90
25512;DHT22;13414;44.534;18.700;2022-09-09T05:04:16;18.30;99.90
25512;DHT22;13414;44.534;18.700;2022-09-09T05:06:45;18.40;99.90
25512;DHT22;13414;44.534;18.700;2022-09-09T05:09:13;18.40;99.90
25512;DHT22;13414;44.534;18.700;2022-09-09T05:11:40;18.40;99.90
25512;DHT22;13414;44.534;18.700;2022-09-09T05:14:28;18.50;99.90
25512;DHT22;13414;44.534;18.700;2022-09-09T05:16:57;18.50;99.90
25512;DHT22;13414;44.534;18.700;2022-09-09T05:19:24;18.50;99.90
25512;DHT22;13414;44.534;18.700;2022-09-09T05:21:53;18.50;99.90
25512;DHT22;13414;44.534;18.700;2022-09-09T05:24:26;18.60;99.90
25512;DHT22;13414;44.534;18.700;2022-09-09T05:26:56;18.70;99.90
25512;DHT22;13414;44.534;18.700;2022-09-09T05:29:26;18.70;99.90
25512;DHT22;13414;44.534;18.700;2022-09-09T05:31:55;18.80;99.90
25512;DHT22;13414;44.534;18.700;2022-09-09T05:34:23;18.90;99.90
25512;DHT22;13414;44.534;18.700;2022-09-09T05:36:51;19.00;99.90
25512;DHT22;13414;44.534;18.700;2022-09-09T05:39:20;19.00;99.90
25512;DHT22;13414;44.534;18.700;2022-09-09T05:41:48;19.10;99.90
25512;DHT22;13414;44.534;18.700;2022-09-09T05:44:16;19.20;99.90
25512;DHT22;13414;44.534;18.700;2022-09-09T05:46:44;19.40;99.90
25512;DHT22;13414;44.534;18.700;2022-09-09T05:49:13;19.50;99.90
25512;DHT22;13414;44.534;18.700;2022-09-09T05:51:43;19.60;99.90
25512;DHT22;13414;44.534;18.700;2022-09-09T05:54:12;19.80;99.90
25512;DHT22;13414;44.534;18.700;2022-09-09T05:56:44;20.10;99.90
25512;DHT22;13414;44.534;18.700;2022-09-09T05:59:12;20.50;99.90
25512;DHT22;13414;44.534;18.700;2022-09-09T06:01:41;20.80;99.90
25512;DHT22;13414;44.534;18.700;2022-09-09T06:04:17;21.10;99.90
25512;DHT22;13414;44.534;18.700;2022-09-09T06:06:49;21.50;99.90
25512;DHT22;13414;44.534;18.700;2022-09-09T06:09:20;21.80;99.90
25512;DHT22;13414;44.534;18.700;2022-09-09T06:11:47;21.90;99.90
25512;DHT22;13414;44.534;18.700;2022-09-09T06:14:15;21.90;99.90
25512;DHT22;13414;44.534;18.700;2022-09-09T06:16:46;22.20;99.90
25512;DHT22;13414;44.534;18.700;2022-09-09T06:19:18;22.20;99.90
25512;DHT22;13414;44.534;18.700;2022-09-09T06:21:46;22.20;99.90
25512;DHT22;13414;44.534;18.700;2022-09-09T06:24:17;22.20;99.90
25512;DHT22;13414;44.534;18.700;2022-09-09T06:26:45;22.10;99.90
25512;DHT22;13414;44.534;18.700;2022-09-09T06:29:18;21.90;99.90
25512;DHT22;13414;44.534;18.700;2022-09-09T06:31:46;21.70;99.90
25512;DHT22;13414;44.534;18.700;2022-09-09T06:34:20;21.60;99.90
25512;DHT22;13414;44.534;18.700;2022-09-09T06:36:52;21.60;99.90
25512;DHT22;13414;44.534;18.700;2022-09-09T06:39:20;21.70;99.90
25512;DHT22;13414;44.534;18.700;2022-09-09T06:41:48;21.80;99.90
25512;DHT22;13414;44.534;18.700;2022-09-09T06:44:38;21.90;99.90
25512;DHT22;13414;44.534;18.700;2022-09-09T06:47:09;22.10;99.90
25512;DHT22;13414;44.534;18.700;2022-09-09T06:49:37;22.10;99.90
25512;DHT22;13414;44.534;18.700;2022-09-09T06:52:08;22.10;99.90
25512;DHT22;13414;44.534;18.700;2022-09-09T06:54:37;22.10;99.90
25512;DHT22;13414;44.534;18.700;2022-09-09T06:57:05;22.10;99.90
25512;DHT22;13414;44.534;18.700;2022-09-09T06:59:34;22.20;99.90
25512;DHT22;13414;44.534;18.700;2022-09-09T07:02:02;22.50;99.90
25512;DHT22;13414;44.534;18.700;2022-09-09T07:04:30;22.60;99.90
25512;DHT22;13414;44.534;18.700;2022-09-09T07:06:58;22.80;99.90
25512;DHT22;13414;44.534;18.700;2022-09-09T07:09:27;23.30;99.90
25512;DHT22;13414;44.534;18.700;2022-09-09T07:11:56;23.80;99.90
25512;DHT22;13414;44.534;18.700;2022-09-09T07:14:28;24.40;99.90
25512;DHT22;13414;44.534;18.700;2022-09-09T07:16:59;24.40;99.90
25512;DHT22;13414;44.534;18.700;2022-09-09T07:19:30;24.70;99.90
25512;DHT22;13414;44.534;18.700;2022-09-09T07:21:58;24.30;99.90
25512;DHT22;13414;44.534;18.700;2022-09-09T07:24:25;24.10;99.90
25512;DHT22;13414;44.534;18.700;2022-09-09T07:26:57;24.00;99.90
25512;DHT22;13414;44.534;18.700;2022-09-09T07:29:26;23.80;99.90
25512;DHT22;13414;44.534;18.700;2022-09-09T07:31:53;23.80;99.90
25512;DHT22;13414;44.534;18.700;2022-09-09T07:34:26;23.90;99.90
25512;DHT22;13414;44.534;18.700;2022-09-09T07:36:53;24.20;99.90
25512;DHT22;13414;44.534;18.700;2022-09-09T07:39:20;24.50;99.90
25512;DHT22;13414;44.534;18.700;2022-09-09T07:41:52;24.60;99.90
25512;DHT22;13414;44.534;18.700;2022-09-09T07:44:24;24.90;99.90
25512;DHT22;13414;44.534;18.700;2022-09-09T07:47:12;25.20;99.90
25512;DHT22;13414;44.534;18.700;2022-09-09T07:49:46;25.60;99.90
25512;DHT22;13414;44.534;18.700;2022-09-09T07:52:19;26.00;1.00
25512;DHT22;13414;44.534;18.700;2022-09-09T07:54:51;26.10;1.00
25512;DHT22;13414;44.534;18.700;2022-09-09T07:57:18;25.90;1.00
25512;DHT22;13414;44.534;18.700;2022-09-09T07:59:48;25.70;1.00
25512;DHT22;13414;44.534;18.700;2022-09-09T08:02:16;25.70;1.00
25512;DHT22;13414;44.534;18.700;2022-09-09T08:04:50;25.70;1.00
25512;DHT22;13414;44.534;18.700;2022-09-09T08:07:19;25.70;99.90
25512;DHT22;13414;44.534;18.700;2022-09-09T08:09:54;25.40;1.00
25512;DHT22;13414;44.534;18.700;2022-09-09T08:12:26;25.60;1.00
25512;DHT22;13414;44.534;18.700;2022-09-09T08:14:54;25.60;1.00
25512;DHT22;13414;44.534;18.700;2022-09-09T08:17:25;25.80;1.00
25512;DHT22;13414;44.534;18.700;2022-09-09T08:19:52;26.00;99.90
25512;DHT22;13414;44.534;18.700;2022-09-09T08:22:24;26.00;1.00
25512;DHT22;13414;44.534;18.700;2022-09-09T08:24:52;26.00;1.00
25512;DHT22;13414;44.534;18.700;2022-09-09T08:27:19;26.00;1.00
25512;DHT22;13414;44.534;18.700;2022-09-09T08:29:47;26.00;62.60
25512;DHT22;13414;44.534;18.700;2022-09-09T08:32:16;26.30;1.00
25512;DHT22;13414;44.534;18.700;2022-09-09T08:34:45;26.70;48.00
25512;DHT22;13414;44.534;18.700;2022-09-09T08:37:19;26.60;1.00
25512;DHT22;13414;44.534;18.700;2022-09-09T08:39:47;26.60;1.00
25512;DHT22;13414;44.534;18.700;2022-09-09T08:42:27;26.70;99.90
25512;DHT22;13414;44.534;18.700;2022-09-09T08:45:15;26.70;1.00
25512;DHT22;13414;44.534;18.700;2022-09-09T08:47:59;26.70;99.90
25512;DHT22;13414;44.534;18.700;2022-09-09T08:50:34;26.80;1.00
25512;DHT22;13414;44.534;18.700;2022-09-09T08:53:22;26.40;1.00
25512;DHT22;13414;44.534;18.700;2022-09-09T08:55:54;26.20;1.00
25512;DHT22;13414;44.534;18.700;2022-09-09T08:58:45;26.10;1.00
25512;DHT22;13414;44.534;18.700;2022-09-09T09:01:33;26.20;1.00
25512;DHT22;13414;44.534;18.700;2022-09-09T09:04:19;26.40;1.00
25512;DHT22;13414;44.534;18.700;2022-09-09T09:06:58;26.40;99.90
25512;DHT22;13414;44.534;18.700;2022-09-09T09:09:36;26.20;1.00
25512;DHT22;13414;44.534;18.700;2022-09-09T09:12:15;26.10;99.90
25512;DHT22;13414;44.534;18.700;2022-09-09T09:14:46;26.10;1.00
25512;DHT22;13414;44.534;18.700;2022-09-09T09:17:17;26.10;99.90
25512;DHT22;13414;44.534;18.700;2022-09-09T09:19:48;26.40;33.20
25512;DHT22;13414;44.534;18.700;2022-09-09T09:22:18;26.70;99.90
25512;DHT22;13414;44.534;18.700;2022-09-09T09:24:53;26.70;1.00
25512;DHT22;13414;44.534;18.700;2022-09-09T09:27:31;26.80;1.00
25512;DHT22;13414;44.534;18.700;2022-09-09T09:30:01;26.80;1.00
25512;DHT22;13414;44.534;18.700;2022-09-09T09:32:33;26.40;1.00
25512;DHT22;13414;44.534;18.700;2022-09-09T09:35:12;26.40;1.00
25512;DHT22;13414;44.534;18.700;2022-09-09T09:37:41;26.30;1.00
25512;DHT22;13414;44.534;18.700;2022-09-09T09:40:13;26.30;1.00
25512;DHT22;13414;44.534;18.700;2022-09-09T09:42:48;26.30;1.00
25512;DHT22;13414;44.534;18.700;2022-09-09T09:45:25;26.40;99.90
25512;DHT22;13414;44.534;18.700;2022-09-09T09:48:00;26.70;1.00
25512;DHT22;13414;44.534;18.700;2022-09-09T09:50:31;26.80;99.90
25512;DHT22;13414;44.534;18.700;2022-09-09T09:53:01;26.90;1.00
25512;DHT22;13414;44.534;18.700;2022-09-09T09:55:33;27.30;1.00
25512;DHT22;13414;44.534;18.700;2022-09-09T09:58:04;27.60;1.00
25512;DHT22;13414;44.534;18.700;2022-09-09T10:00:32;27.80;1.00
25512;DHT22;13414;44.534;18.700;2022-09-09T10:03:19;27.70;99.90
25512;DHT22;13414;44.534;18.700;2022-09-09T10:05:51;27.70;1.00
25512;DHT22;13414;44.534;18.700;2022-09-09T10:08:20;27.60;1.00
25512;DHT22;13414;44.534;18.700;2022-09-09T10:13:42;27.90;1.00
25512;DHT22;13414;44.534;18.700;2022-09-09T10:16:29;28.10;99.90
25512;DHT22;13414;44.534;18.700;2022-09-09T10:19:01;28.10;91.60
25512;DHT22;13414;44.534;18.700;2022-09-09T10:21:44;28.20;1.00
25512;DHT22;13414;44.534;18.700;2022-09-09T10:24:27;27.90;1.00
25512;DHT22;13414;44.534;18.700;2022-09-09T10:27:02;27.90;1.00
25512;DHT22;13414;44.534;18.700;2022-09-09T10:29:41;27.80;1.00
25512;DHT22;13414;44.534;18.700;2022-09-09T10:32:27;27.60;1.00
25512;DHT22;13414;44.534;18.700;2022-09-09T10:35:00;27.60;1.00
25512;DHT22;13414;44.534;18.700;2022-09-09T10:37:41;27.60;1.00
25512;DHT22;13414;44.534;18.700;2022-09-09T10:40:23;27.60;1.00
25512;DHT22;13414;44.534;18.700;2022-09-09T10:42:55;27.80;1.00
25512;DHT22;13414;44.534;18.700;2022-09-09T10:45:30;27.80;1.00
25512;DHT22;13414;44.534;18.700;2022-09-09T10:48:09;27.90;1.00
25512;DHT22;13414;44.534;18.700;2022-09-09T10:50:47;27.70;18.40
25512;DHT22;13414;44.534;18.700;2022-09-09T10:53:24;27.70;1.00
25512;DHT22;13414;44.534;18.700;2022-09-09T10:55:57;27.80;1.00
25512;DHT22;13414;44.534;18.700;2022-09-09T10:58:30;27.90;1.00
25512;DHT22;13414;44.534;18.700;2022-09-09T11:01:02;27.90;1.00
25512;DHT22;13414;44.534;18.700;2022-09-09T11:03:35;27.90;1.00
25512;DHT22;13414;44.534;18.700;2022-09-09T11:06:07;27.80;1.00
25512;DHT22;13414;44.534;18.700;2022-09-09T11:08:39;27.70;1.00
25512;DHT22;13414;44.534;18.700;2022-09-09T11:11:11;27.90;1.00
25512;DHT22;13414;44.534;18.700;2022-09-09T11:13:46;28.00;1.00
25512;DHT22;13414;44.534;18.700;2022-09-09T11:16:24;27.90;1.00
25512;DHT22;13414;44.534;18.700;2022-09-09T11:18:57;27.80;1.00
25512;DHT22;13414;44.534;18.700;2022-09-09T11:21:28;27.70;1.00
25512;DHT22;13414;44.534;18.700;2022-09-09T11:24:02;27.80;1.00
25512;DHT22;13414;44.534;18.700;2022-09-09T11:26:35;27.90;1.00
25512;DHT22;13414;44.534;18.700;2022-09-09T11:29:19;27.90;1.00
25512;DHT22;13414;44.534;18.700;2022-09-09T11:32:01;28.00;1.00
25512;DHT22;13414;44.534;18.700;2022-09-09T11:34:39;28.20;1.00
25512;DHT22;13414;44.534;18.700;2022-09-09T11:37:45;28.50;1.00
25512;DHT22;13414;44.534;18.700;2022-09-09T11:40:22;28.50;1.00
25512;DHT22;13414;44.534;18.700;2022-09-09T11:43:02;28.50;1.00
25512;DHT22;13414;44.534;18.700;2022-09-09T11:45:30;28.70;1.00
25512;DHT22;13414;44.534;18.700;2022-09-09T11:48:00;28.90;1.00
25512;DHT22;13414;44.534;18.700;2022-09-09T11:50:33;29.20;99.90
25512;DHT22;13414;44.534;18.700;2022-09-09T11:53:20;29.30;1.00
25512;DHT22;13414;44.534;18.700;2022-09-09T11:56:01;29.70;1.00
25512;DHT22;13414;44.534;18.700;2022-09-09T11:58:34;29.80;1.00
25512;DHT22;13414;44.534;18.700;2022-09-09T12:01:13;29.80;1.00
25512;DHT22;13414;44.534;18.700;2022-09-09T12:03:43;29.50;1.00
25512;DHT22;13414;44.534;18.700;2022-09-09T12:06:15;29.10;1.00
25512;DHT22;13414;44.534;18.700;2022-09-09T12:08:46;28.90;99.90
25512;DHT22;13414;44.534;18.700;2022-09-09T12:11:25;28.80;1.00
25512;DHT22;13414;44.534;18.700;2022-09-09T12:13:55;28.50;99.90
25512;DHT22;13414;44.534;18.700;2022-09-09T12:16:30;28.40;99.90
25512;DHT22;13414;44.534;18.700;2022-09-09T12:19:07;28.40;99.90
25512;DHT22;13414;44.534;18.700;2022-09-09T12:21:46;28.30;1.00
25512;DHT22;13414;44.534;18.700;2022-09-09T12:24:20;28.10;1.00
25512;DHT22;13414;44.534;18.700;2022-09-09T12:26:56;28.30;1.00
25512;DHT22;13414;44.534;18.700;2022-09-09T12:29:27;28.20;1.00
25512;DHT22;13414;44.534;18.700;2022-09-09T12:32:02;28.20;1.00
25512;DHT22;13414;44.534;18.700;2022-09-09T12:34:36;28.10;1.00
25512;DHT22;13414;44.534;18.700;2022-09-09T12:37:14;28.10;94.80
25512;DHT22;13414;44.534;18.700;2022-09-09T12:39:47;28.10;1.00
25512;DHT22;13414;44.534;18.700;2022-09-09T12:42:19;28.10;99.90
25512;DHT22;13414;44.534;18.700;2022-09-09T12:44:55;28.10;99.90
25512;DHT22;13414;44.534;18.700;2022-09-09T12:47:26;28.20;99.90
25512;DHT22;13414;44.534;18.700;2022-09-09T12:49:56;28.30;99.90
25512;DHT22;13414;44.534;18.700;2022-09-09T12:52:27;28.30;99.90
25512;DHT22;13414;44.534;18.700;2022-09-09T12:54:59;28.20;1.00
25512;DHT22;13414;44.534;18.700;2022-09-09T12:57:33;28.10;1.00
25512;DHT22;13414;44.534;18.700;2022-09-09T13:00:11;28.10;99.90
25512;DHT22;13414;44.534;18.700;2022-09-09T13:02:47;28.10;1.00
25512;DHT22;13414;44.534;18.700;2022-09-09T13:05:19;28.00;99.90
25512;DHT22;13414;44.534;18.700;2022-09-09T13:07:46;28.00;99.90
25512;DHT22;13414;44.534;18.700;2022-09-09T13:10:17;27.90;99.90
25512;DHT22;13414;44.534;18.700;2022-09-09T13:12:49;27.90;99.90
25512;DHT22;13414;44.534;18.700;2022-09-09T13:15:21;27.80;99.90
25512;DHT22;13414;44.534;18.700;2022-09-09T13:17:54;27.80;1.00
25512;DHT22;13414;44.534;18.700;2022-09-09T13:20:24;27.60;99.90
25512;DHT22;13414;44.534;18.700;2022-09-09T13:22:53;27.50;99.90
25512;DHT22;13414;44.534;18.700;2022-09-09T13:25:23;27.50;1.00
25512;DHT22;13414;44.534;18.700;2022-09-09T13:27:56;27.60;1.00
25512;DHT22;13414;44.534;18.700;2022-09-09T13:30:26;27.60;99.90
25512;DHT22;13414;44.534;18.700;2022-09-09T13:33:20;27.60;1.00
25512;DHT22;13414;44.534;18.700;2022-09-09T13:35:50;27.70;1.00
25512;DHT22;13414;44.534;18.700;2022-09-09T13:38:19;27.70;1.00
25512;DHT22;13414;44.534;18.700;2022-09-09T13:40:55;27.70;1.00
25512;DHT22;13414;44.534;18.700;2022-09-09T13:43:25;27.70;1.00
25512;DHT22;13414;44.534;18.700;2022-09-09T13:45:55;27.50;99.90
25512;DHT22;13414;44.534;18.700;2022-09-09T13:48:24;27.50;99.90
25512;DHT22;13414;44.534;18.700;2022-09-09T13:51:00;27.50;84.30
25512;DHT22;13414;44.534;18.700;2022-09-09T13:53:29;27.60;99.90
25512;DHT22;13414;44.534;18.700;2022-09-09T13:55:57;27.60;1.00
25512;DHT22;13414;44.534;18.700;2022-09-09T13:58:26;27.50;1.00
25512;DHT22;13414;44.534;18.700;2022-09-09T14:00:53;27.50;99.90
25512;DHT22;13414;44.534;18.700;2022-09-09T14:03:21;27.60;99.90
25512;DHT22;13414;44.534;18.700;2022-09-09T14:05:48;27.60;99.90
25512;DHT22;13414;44.534;18.700;2022-09-09T14:08:23;27.50;99.90
25512;DHT22;13414;44.534;18.700;2022-09-09T14:10:51;27.30;39.40
25512;DHT22;13414;44.534;18.700;2022-09-09T14:13:18;27.20;44.90
25512;DHT22;13414;44.534;18.700;2022-09-09T14:15:49;27.10;1.00
25512;DHT22;13414;44.534;18.700;2022-09-09T14:18:17;27.10;1.00
25512;DHT22;13414;44.534;18.700;2022-09-09T14:20:44;27.10;99.90
25512;DHT22;13414;44.534;18.700;2022-09-09T14:23:12;27.30;99.90
25512;DHT22;13414;44.534;18.700;2022-09-09T14:25:41;27.50;25.80
25512;DHT22;13414;44.534;18.700;2022-09-09T14:28:12;27.60;1.00
25512;DHT22;13414;44.534;18.700;2022-09-09T14:30:41;27.60;1.00
25512;DHT22;13414;44.534;18.700;2022-09-09T14:33:13;27.50;10.00
25512;DHT22;13414;44.534;18.700;2022-09-09T14:35:41;27.60;99.90
25512;DHT22;13414;44.534;18.700;2022-09-09T14:38:09;27.60;1.00
25512;DHT22;13414;44.534;18.700;2022-09-09T14:40:37;27.60;37.20
25512;DHT22;13414;44.534;18.700;2022-09-09T14:43:04;27.60;1.00
25512;DHT22;13414;44.534;18.700;2022-09-09T14:45:32;27.60;1.00
25512;DHT22;13414;44.534;18.700;2022-09-09T14:48:00;27.50;1.00
25512;DHT22;13414;44.534;18.700;2022-09-09T14:50:28;27.60;99.90
25512;DHT22;13414;44.534;18.700;2022-09-09T14:52:56;27.50;29.90
25512;DHT22;13414;44.534;18.700;2022-09-09T14:55:23;27.40;1.00
25512;DHT22;13414;44.534;18.700;2022-09-09T14:57:54;27.50;99.90
25512;DHT22;13414;44.534;18.700;2022-09-09T15:00:21;27.60;99.90
25512;DHT22;13414;44.534;18.700;2022-09-09T15:02:52;27.70;99.90
25512;DHT22;13414;44.534;18.700;2022-09-09T15:05:19;27.80;99.90
25512;DHT22;13414;44.534;18.700;2022-09-09T15:07:48;27.80;99.90
25512;DHT22;13414;44.534;18.700;2022-09-09T15:10:16;27.70;99.90
25512;DHT22;13414;44.534;18.700;2022-09-09T15:12:44;27.60;1.00
25512;DHT22;13414;44.534;18.700;2022-09-09T15:15:11;27.50;1.00
25512;DHT22;13414;44.534;18.700;2022-09-09T15:17:39;27.50;1.00
25512;DHT22;13414;44.534;18.700;2022-09-09T15:20:07;27.50;1.00
25512;DHT22;13414;44.534;18.700;2022-09-09T15:22:35;27.40;99.90
25512;DHT22;13414;44.534;18.700;2022-09-09T15:25:06;27.30;1.00
25512;DHT22;13414;44.534;18.700;2022-09-09T15:27:34;27.20;1.00
25512;DHT22;13414;44.534;18.700;2022-09-09T15:30:03;27.20;1.00
25512;DHT22;13414;44.534;18.700;2022-09-09T15:32:30;27.30;99.90
25512;DHT22;13414;44.534;18.700;2022-09-09T15:35:00;27.40;1.00
25512;DHT22;13414;44.534;18.700;2022-09-09T15:37:27;27.30;1.00
25512;DHT22;13414;44.534;18.700;2022-09-09T15:39:54;26.90;99.90
25512;DHT22;13414;44.534;18.700;2022-09-09T15:42:25;26.80;1.00
25512;DHT22;13414;44.534;18.700;2022-09-09T15:44:53;26.60;99.90
25512;DHT22;13414;44.534;18.700;2022-09-09T15:47:20;26.50;1.00
25512;DHT22;13414;44.534;18.700;2022-09-09T15:49:47;26.30;1.00
25512;DHT22;13414;44.534;18.700;2022-09-09T15:52:16;26.10;1.00
25512;DHT22;13414;44.534;18.700;2022-09-09T15:54:43;26.00;1.00